WetterOnline ( https://www.wetteronline.de )

Wetter aktuell Aachen

Aktuelles Wetter: Aachen-Orsbach (231m)

6-stündlich | Neueste Meldungen
Ortszeit Temperatur Wetter
Fr, 19.08. 2:00 18.2° C leicht bewölkt
Do, 18.08. 20:00 23.2° C wolkig
Do, 18.08. 14:00 19.7° C bedeckt
Do, 18.08. 8:00 15.3° C Nebel
Do, 18.08. 2:00 15.6° C wolkig
Mi, 17.08. 20:00 21.6° C fast wolkenlos
Mi, 17.08. 14:00 18.6° C leichter Regen
Mi, 17.08. 8:00 19.4° C bedeckt
Ortszeit Temperatur Wetter
Fr, 19.08. 2:30 17.5° C leicht bewölkt
Fr, 19.08. 2:20 17.5° C leicht bewölkt
Fr, 19.08. 2:10 17.5° C leicht bewölkt
Fr, 19.08. 2:00 18.2° C leicht bewölkt
Fr, 19.08. 1:50 18.2° C leicht bewölkt
Fr, 19.08. 1:40 18.2° C leicht bewölkt
Fr, 19.08. 1:30 18.2° C wolkig
Fr, 19.08. 1:00 18.0° C leicht bewölkt
Fr, 19.08. 0:30 18.6° C fast wolkenlos
Fr, 19.08. 0:00 18.8° C leicht bewölkt
Do, 18.08. 23:30 18.6° C leicht bewölkt
Ortszeit Relative Feuchte Sichtweite
Fr, 19.08. 2:00 80% 22 km
Do, 18.08. 20:00 58% 45 km
Do, 18.08. 14:00 75% 15 km
Do, 18.08. 8:00 100% <100 m
Do, 18.08. 2:00 99% 3.0 km
Mi, 17.08. 20:00 71% 30 km
Mi, 17.08. 14:00 86% 8 km
Mi, 17.08. 8:00 73% 50 km
Ortszeit Relative Feuchte Sichtweite
Fr, 19.08. 2:30 83% 18 km
Fr, 19.08. 2:20 83% -
Fr, 19.08. 2:10 83% -
Fr, 19.08. 2:00 80% 22 km
Fr, 19.08. 1:50 80% -
Fr, 19.08. 1:40 80% -
Fr, 19.08. 1:30 80% 23 km
Fr, 19.08. 1:00 80% 30 km
Fr, 19.08. 0:30 75% 35 km
Fr, 19.08. 0:00 72% 35 km
Do, 18.08. 23:30 75% 40 km
Ortszeit Niederschlagsmenge Niederschlagsart
Fr, 19.08. 2:00 0.0 l/m2 in 6 Std. -
Do, 18.08. 20:00 0.2 l/m2 in 12 Std. -
Do, 18.08. 14:00 0.2 l/m2 in 6 Std. -
Do, 18.08. 8:00 0.1 l/m2 in 12 Std. -
Do, 18.08. 2:00 0.0 l/m2 in 6 Std. -
Mi, 17.08. 20:00 2 l/m2 in 12 Std. Regen
Mi, 17.08. 14:00 2 l/m2 in 6 Std. Regen
Mi, 17.08. 8:00 0.1 l/m2 in 12 Std. -
Ortszeit Niederschlagsmenge Niederschlagsart
Fr, 19.08. 2:30 0.0 l/m2 in 1 Std. -
Fr, 19.08. 2:20 keine Meldung -
Fr, 19.08. 2:10 keine Meldung -
Fr, 19.08. 2:00 0.0 l/m2 in 1 Std. -
Fr, 19.08. 1:50 keine Meldung -
Fr, 19.08. 1:40 keine Meldung -
Fr, 19.08. 1:30 0.0 l/m2 in 1 Std. -
Fr, 19.08. 1:00 0.0 l/m2 in 1 Std. -
Fr, 19.08. 0:30 0.0 l/m2 in 1 Std. -
Fr, 19.08. 0:00 0.0 l/m2 in 1 Std. -
Do, 18.08. 23:30 0.0 l/m2 in 1 Std. -
Ortszeit Stärke Spitze Richtung
km/h Bft. km/h Grad Sektor
Fr, 19.08. 2:00 7 2 9 260° W
Do, 18.08. 20:00 7 2 22 310° NW
Do, 18.08. 14:00 4 1 14 270° W
Do, 18.08. 8:00 7 2 14 240° SW
Do, 18.08. 2:00 4 1 11 210° SW
Mi, 17.08. 20:00 6 1 17 310° NW
Mi, 17.08. 14:00 11 2 22 240° SW
Mi, 17.08. 8:00 7 2 36 260° W
Ortszeit Stärke Spitze Richtung
km/h Bft. km/h Grad Sektor
Fr, 19.08. 2:30 7 2 11 240° SW
Fr, 19.08. 2:20 7 2 - 240° SW
Fr, 19.08. 2:10 7 2 - 240° SW
Fr, 19.08. 2:00 7 2 9 260° W
Fr, 19.08. 1:50 7 2 - 260° W
Fr, 19.08. 1:40 7 2 - 250° W
Fr, 19.08. 1:30 7 2 7 270° W
Fr, 19.08. 1:00 6 1 7 250° W
Fr, 19.08. 0:30 7 2 7 270° W
Fr, 19.08. 0:00 6 1 7 270° W
Do, 18.08. 23:30 4 1 7 260° W
Ortszeit Untergrenze Bedeckung Gattung
total tief tief mittel hoch
Fr, 19.08. 2:00 10500 m 4/8 0/8 - - -
Do, 18.08. 20:00 9000 m 8/8 0/8 - - -
Do, 18.08. 14:00 480 m 8/8 8/8 - - -
Do, 18.08. 8:00 <30 m 8/8 0/8 - - -
Do, 18.08. 2:00 9000 m 7/8 0/8 - - -
Mi, 17.08. 20:00 2700 m 1/8 1/8 - - -
Mi, 17.08. 14:00 1080 m 8/8 7/8 - - -
Mi, 17.08. 8:00 3600 m 8/8 8/8 - - -
Ortszeit Bedeckungsgrad in Achtel und Wolkenuntergrenze
Fr, 19.08. 2:30 3(10500m)
Fr, 19.08. 2:20 3(10500m)
Fr, 19.08. 2:10 2
Fr, 19.08. 2:00 2(10500m) 4(12000m)
Fr, 19.08. 1:50 2(10500m) 4(12000m)
Fr, 19.08. 1:40 4
Fr, 19.08. 1:30 7(10500m)
Fr, 19.08. 1:00 1(1230m) 4(10500m)
Fr, 19.08. 0:30 1(10500m)
Fr, 19.08. 0:00 2(1200m) 4(10500m)
Do, 18.08. 23:30 4(10500m)
Ortszeit Luftdruck NN (hPa) Tendenz (hPa in 3 Std.)
Fr, 19.08. 2:00 1014 + 0,5
Do, 18.08. 20:00 1013 - 0,6
Do, 18.08. 14:00 1014 - 0,6
Do, 18.08. 8:00 1014 + 0,5
Do, 18.08. 2:00 1013 + 0,4
Mi, 17.08. 20:00 1011 + 0,1
Mi, 17.08. 14:00 1012 + 0,5
Mi, 17.08. 8:00 1010 + 1,0
Ortszeit Luftdruck NN (hPa) Tendenz (hPa in 3 Std.)
Fr, 19.08. 2:30 1014 + 0,3
Fr, 19.08. 2:20 1014 keine Meldung
Fr, 19.08. 2:10 1014 keine Meldung
Fr, 19.08. 2:00 1014 + 0,5
Fr, 19.08. 1:50 1014 keine Meldung
Fr, 19.08. 1:40 1014 keine Meldung
Fr, 19.08. 1:30 1014 + 0,5
Fr, 19.08. 1:00 1014 + 0,5
Fr, 19.08. 0:30 1014 + 0,5
Fr, 19.08. 0:00 1014 + 0,6
Do, 18.08. 23:30 1014 + 0,5
Ortszeit Schneehöhe (cm)
Fr, 19.08. 2:00 0
Do, 18.08. 20:00 0
Do, 18.08. 14:00 0
Do, 18.08. 8:00 0
Do, 18.08. 2:00 0
Mi, 17.08. 20:00 0
Mi, 17.08. 14:00 0
Mi, 17.08. 8:00 0
Ortszeit Schneehöhe (cm)
Fr, 19.08. 2:30 0
Fr, 19.08. 2:20 0
Fr, 19.08. 2:10 0
Fr, 19.08. 2:00 0
Fr, 19.08. 1:50 0
Fr, 19.08. 1:40 0
Fr, 19.08. 1:30 0
Fr, 19.08. 1:00 0
Fr, 19.08. 0:30 0
Fr, 19.08. 0:00 0
Do, 18.08. 23:30 0
Link zu dieser Seite / Seite empfehlen

Das Wetter in ...